createdAt,value
2022-09-18T00:01:32.983Z,14.05
2022-09-18T00:04:04.469Z,14.17
2022-09-18T00:06:36.046Z,14.23
2022-09-18T00:09:06.778Z,14.02
2022-09-18T00:11:37.049Z,14.17
2022-09-18T00:14:07.296Z,14.10
2022-09-18T00:16:35.425Z,13.79
2022-09-18T00:19:05.583Z,14.03
2022-09-18T00:21:35.881Z,13.73
2022-09-18T00:24:05.074Z,13.86
2022-09-18T00:26:33.493Z,13.81
2022-09-18T00:29:01.726Z,13.59
2022-09-18T00:31:31.547Z,13.93
2022-09-18T00:34:01.188Z,13.89
2022-09-18T00:36:31.512Z,14.00
2022-09-18T00:38:59.891Z,13.66
2022-09-18T00:41:29.898Z,13.90
2022-09-18T00:44:30.769Z,14.31
2022-09-18T00:47:04.821Z,14.06
2022-09-18T00:49:33.354Z,13.72
2022-09-18T00:52:03.689Z,13.98
2022-09-18T00:54:34.427Z,13.91
2022-09-18T00:57:05.776Z,13.88
2022-09-18T00:59:35.297Z,13.72
2022-09-18T01:02:04.105Z,13.48
2022-09-18T01:04:32.320Z,13.55
2022-09-18T01:07:10.084Z,13.98
2022-09-18T01:09:44.556Z,13.89
2022-09-18T01:12:20.956Z,13.93
2022-09-18T01:14:54.153Z,14.01
2022-09-18T01:17:27.464Z,13.92
2022-09-18T01:20:27.566Z,14.10
2022-09-18T01:23:09.765Z,14.01
2022-09-18T01:25:47.942Z,13.87
2022-09-18T01:28:21.659Z,13.83
2022-09-18T01:30:52.052Z,13.71
2022-09-18T01:33:26.114Z,13.83
2022-09-18T01:35:58.391Z,13.65
2022-09-18T01:38:31.679Z,13.79
2022-09-18T01:41:02.379Z,13.72
2022-09-18T01:43:32.340Z,13.64
2022-09-18T01:46:04.575Z,13.57
2022-09-18T01:48:35.532Z,13.53
2022-09-18T01:51:07.388Z,13.58
2022-09-18T01:53:38.991Z,13.55
2022-09-18T01:56:09.733Z,13.61
2022-09-18T01:58:39.686Z,13.60
2022-09-18T02:01:13.212Z,13.65
2022-09-18T02:03:46.222Z,13.56
2022-09-18T02:06:17.831Z,13.61
2022-09-18T02:08:48.893Z,13.41
2022-09-18T02:11:18.622Z,13.32
2022-09-18T02:13:52.575Z,13.55
2022-09-18T02:16:24.679Z,13.53
2022-09-18T02:18:55.164Z,13.40
2022-09-18T02:21:27.063Z,13.43
2022-09-18T02:23:56.491Z,13.39
2022-09-18T02:26:25.152Z,13.20
2022-09-18T02:28:54.733Z,13.38
2022-09-18T02:31:23.115Z,13.02
2022-09-18T02:33:51.176Z,13.01
2022-09-18T02:36:36.343Z,13.64
2022-09-18T02:39:13.943Z,13.46
2022-09-18T02:41:47.350Z,13.41
2022-09-18T02:44:21.013Z,13.34
2022-09-18T02:46:58.321Z,13.30
2022-09-18T02:49:36.982Z,13.24
2022-09-18T02:52:07.793Z,12.92
2022-09-18T02:54:43.044Z,13.03
2022-09-18T02:57:15.350Z,12.91
2022-09-18T02:59:47.545Z,12.90
2022-09-18T03:02:15.831Z,12.42
2022-09-18T03:04:45.365Z,12.56
2022-09-18T03:07:16.297Z,12.27
2022-09-18T03:09:44.376Z,12.20
2022-09-18T03:12:13.046Z,12.18
2022-09-18T03:14:41.127Z,12.04
2022-09-18T03:17:11.081Z,12.37
2022-09-18T03:19:39.312Z,12.04
2022-09-18T03:22:07.406Z,12.02
2022-09-18T03:24:35.473Z,11.88
2022-09-18T03:27:04.038Z,11.84
2022-09-18T03:29:32.246Z,11.89
2022-09-18T03:32:00.336Z,11.72
2022-09-18T03:34:30.008Z,11.99
2022-09-18T03:36:58.158Z,11.64
2022-09-18T03:39:26.144Z,11.50
2022-09-18T03:41:54.440Z,11.45
2022-09-18T03:44:22.548Z,11.47
2022-09-18T03:46:50.987Z,11.41
2022-09-18T03:49:19.338Z,11.44
2022-09-18T03:51:48.784Z,11.71
2022-09-18T03:54:17.153Z,11.47
2022-09-18T03:56:45.769Z,11.28
2022-09-18T03:59:13.956Z,11.32
2022-09-18T04:01:42.123Z,11.37
2022-09-18T04:04:10.768Z,11.38
2022-09-18T04:06:39.192Z,11.27
2022-09-18T04:09:09.005Z,11.65
2022-09-18T04:11:37.220Z,11.20
2022-09-18T04:14:05.661Z,11.25
2022-09-18T04:16:33.823Z,11.23
2022-09-18T04:19:02.095Z,11.23
2022-09-18T04:21:30.440Z,11.21
2022-09-18T04:24:01.705Z,11.25
2022-09-18T04:26:31.319Z,11.60
2022-09-18T04:28:59.436Z,11.29
2022-09-18T04:31:27.538Z,11.22
2022-09-18T04:33:55.861Z,11.30
2022-09-18T04:36:24.501Z,11.25
2022-09-18T04:38:52.728Z,11.18
2022-09-18T04:41:20.921Z,11.15
2022-09-18T04:43:50.549Z,11.44
2022-09-18T04:46:18.628Z,11.13
2022-09-18T04:48:48.747Z,11.48
2022-09-18T04:51:16.923Z,11.08
2022-09-18T04:53:44.984Z,11.08
2022-09-18T04:56:13.196Z,11.08
2022-09-18T04:58:41.240Z,11.20
2022-09-18T05:01:10.852Z,11.58
2022-09-18T05:03:39.391Z,11.38
2022-09-18T05:06:07.611Z,11.31
2022-09-18T05:08:36.099Z,11.47
2022-09-18T05:11:05.022Z,11.47
2022-09-18T05:13:33.132Z,11.53
2022-09-18T05:16:01.184Z,11.51
2022-09-18T05:18:30.919Z,11.76
2022-09-18T05:21:02.384Z,11.81
2022-09-18T05:23:30.600Z,11.64
2022-09-18T05:25:58.634Z,11.65
2022-09-18T05:28:26.870Z,11.61
2022-09-18T05:31:00.172Z,12.16
2022-09-18T05:33:28.471Z,11.73
2022-09-18T05:35:58.897Z,12.27
2022-09-18T05:38:27.632Z,12.15
2022-09-18T05:40:55.808Z,11.93
2022-09-18T05:43:24.287Z,12.00
2022-09-18T05:45:52.464Z,12.20
2022-09-18T05:48:20.781Z,12.47
2022-09-18T05:50:51.993Z,13.00
2022-09-18T05:53:22.721Z,14.03
2022-09-18T05:55:51.047Z,14.28
2022-09-18T05:58:20.112Z,15.01
2022-09-18T06:00:51.310Z,15.43
2022-09-18T06:03:19.689Z,15.53
2022-09-18T06:05:53.652Z,15.83
2022-09-18T06:08:24.369Z,15.32
2022-09-18T06:10:54.847Z,14.63
2022-09-18T06:13:23.142Z,14.42
2022-09-18T06:15:53.018Z,14.16
2022-09-18T06:18:21.286Z,13.74
2022-09-18T06:20:54.430Z,14.02
2022-09-18T06:23:25.106Z,13.84
2022-09-18T06:25:59.141Z,13.77
2022-09-18T06:28:27.501Z,13.28
2022-09-18T06:30:55.857Z,13.08
2022-09-18T06:33:23.947Z,13.00
2022-09-18T06:35:52.335Z,12.96
2022-09-18T06:38:20.491Z,12.93
2022-09-18T06:40:51.045Z,13.43
2022-09-18T06:43:19.524Z,13.07
2022-09-18T06:45:52.900Z,13.71
2022-09-18T06:48:21.414Z,13.51
2022-09-18T06:50:53.295Z,14.08
2022-09-18T06:53:21.547Z,13.90
2022-09-18T06:55:51.614Z,14.36
2022-09-18T06:58:20.563Z,14.31
2022-09-18T07:00:48.640Z,14.14
2022-09-18T07:03:17.001Z,14.22
2022-09-18T07:05:46.153Z,14.30
2022-09-18T07:08:14.672Z,14.39
2022-09-18T07:10:42.981Z,14.29
2022-09-18T07:13:12.770Z,14.49
2022-09-18T07:15:40.738Z,14.23
2022-09-18T07:18:09.241Z,14.30
2022-09-18T07:20:37.274Z,14.25
2022-09-18T07:23:05.510Z,14.38
2022-09-18T07:25:34.763Z,14.28
2022-09-18T07:28:08.051Z,14.83
2022-09-18T07:30:38.706Z,14.86
2022-09-18T07:33:08.279Z,15.26
2022-09-18T07:35:36.805Z,15.32
2022-09-18T07:38:07.360Z,15.97
2022-09-18T07:40:35.770Z,16.79
2022-09-18T07:43:06.032Z,18.15
2022-09-18T07:45:35.136Z,18.55
2022-09-18T07:48:05.690Z,18.84
2022-09-18T07:50:34.000Z,18.24
2022-09-18T07:53:03.804Z,17.94
2022-09-18T07:55:32.816Z,17.51
2022-09-18T07:58:02.932Z,17.21
2022-09-18T08:00:34.824Z,16.95
2022-09-18T08:03:05.329Z,16.71
2022-09-18T08:05:34.249Z,16.45
2022-09-18T08:08:05.960Z,16.29
2022-09-18T08:10:35.157Z,15.71
2022-09-18T08:13:03.810Z,15.41
2022-09-18T08:15:32.224Z,16.02
2022-09-18T08:18:00.513Z,17.61
2022-09-18T08:20:30.142Z,18.80
2022-09-18T08:22:58.610Z,18.49
2022-09-18T08:25:28.234Z,18.56
2022-09-18T08:28:00.659Z,19.37
2022-09-18T08:30:30.527Z,20.13
2022-09-18T08:33:00.696Z,21.39
2022-09-18T08:35:31.350Z,21.54
2022-09-18T08:37:59.848Z,20.73
2022-09-18T08:40:39.347Z,21.19
2022-09-18T08:43:11.274Z,20.81
2022-09-18T08:45:53.002Z,20.59
2022-09-18T08:48:24.360Z,20.53
2022-09-18T08:50:56.060Z,21.32
2022-09-18T08:53:35.812Z,20.90
2022-09-18T08:56:07.870Z,19.96
2022-09-18T08:58:40.581Z,19.12
2022-09-18T09:01:11.350Z,18.22
2022-09-18T09:03:49.754Z,17.63
2022-09-18T09:06:29.568Z,16.96
2022-09-18T09:09:22.823Z,16.38
2022-09-18T09:11:55.351Z,15.86
2022-09-18T09:14:55.549Z,16.27
2022-09-18T09:17:40.017Z,17.96
2022-09-18T09:20:19.742Z,20.90
2022-09-18T09:22:52.943Z,24.17
2022-09-18T09:25:24.315Z,27.36
2022-09-18T09:27:53.751Z,29.89
2022-09-18T09:30:22.217Z,30.54
2022-09-18T09:32:53.664Z,31.26
2022-09-18T09:35:26.420Z,30.28
2022-09-18T09:37:56.236Z,28.97
2022-09-18T09:40:32.501Z,28.02
2022-09-18T09:43:03.527Z,27.62
2022-09-18T09:45:34.837Z,26.28
2022-09-18T09:48:07.815Z,24.72
2022-09-18T09:50:41.698Z,24.47
2022-09-18T09:53:13.098Z,24.29
2022-09-18T09:55:49.061Z,23.28
2022-09-18T09:58:24.348Z,21.89
2022-09-18T10:00:57.690Z,21.11
2022-09-18T10:03:36.883Z,20.76
2022-09-18T10:06:12.643Z,20.14
2022-09-18T10:08:46.731Z,19.74
2022-09-18T10:11:15.626Z,19.10
2022-09-18T10:13:47.608Z,19.07
2022-09-18T10:16:18.939Z,19.02
2022-09-18T10:18:49.546Z,18.87
2022-09-18T10:21:19.367Z,18.97
2022-09-18T10:23:52.732Z,19.35
2022-09-18T10:26:24.545Z,19.05
2022-09-18T10:28:52.653Z,18.34
2022-09-18T10:31:21.041Z,18.16
2022-09-18T10:33:51.333Z,18.55
2022-09-18T10:36:34.624Z,20.71
2022-09-18T10:39:18.463Z,23.64
2022-09-18T10:41:47.111Z,25.05
2022-09-18T10:44:23.980Z,26.66
2022-09-18T10:46:55.510Z,26.34
2022-09-18T10:49:26.831Z,26.49
2022-09-18T10:52:22.510Z,26.14
2022-09-18T10:55:12.799Z,25.62
2022-09-18T10:57:43.835Z,25.06
2022-09-18T11:00:28.266Z,25.50
2022-09-18T11:02:58.732Z,24.68
2022-09-18T11:05:31.372Z,24.54
2022-09-18T11:08:01.968Z,24.38
2022-09-18T11:10:34.133Z,24.76
2022-09-18T11:13:04.136Z,24.68
2022-09-18T11:15:34.387Z,23.67
2022-09-18T11:18:04.946Z,22.88
2022-09-18T11:20:35.242Z,23.45
2022-09-18T11:23:16.576Z,24.05
2022-09-18T11:25:47.355Z,22.82
2022-09-18T11:28:24.041Z,22.61
2022-09-18T11:30:58.466Z,22.88
2022-09-18T11:33:29.054Z,24.61
2022-09-18T11:36:02.120Z,26.08
2022-09-18T11:38:30.533Z,25.11
2022-09-18T11:41:01.767Z,24.44
2022-09-18T11:43:32.885Z,22.78
2022-09-18T11:46:06.928Z,21.14
2022-09-18T11:48:39.032Z,19.80
2022-09-18T11:51:13.404Z,18.84
2022-09-18T11:53:44.576Z,18.19
2022-09-18T11:56:16.388Z,17.84
2022-09-18T11:58:47.229Z,17.57
2022-09-18T12:01:27.921Z,17.60
2022-09-18T12:04:01.785Z,17.47
2022-09-18T12:06:36.019Z,17.23
2022-09-18T12:09:15.301Z,16.88
2022-09-18T12:11:51.624Z,17.04
2022-09-18T12:14:23.039Z,17.00
2022-09-18T12:16:59.014Z,17.43
2022-09-18T12:19:32.344Z,17.43
2022-09-18T12:22:06.460Z,17.72
2022-09-18T12:24:34.724Z,17.04
2022-09-18T12:27:14.290Z,17.55
2022-09-18T12:29:55.879Z,17.61
2022-09-18T12:32:42.154Z,17.64
2022-09-18T12:35:17.471Z,17.83
2022-09-18T12:37:56.892Z,17.67
2022-09-18T12:40:36.619Z,17.42
2022-09-18T12:43:37.354Z,17.56
2022-09-18T12:46:16.868Z,17.32
2022-09-18T12:49:03.629Z,17.49
2022-09-18T12:51:39.859Z,17.40
2022-09-18T12:54:35.289Z,17.52
2022-09-18T12:57:16.681Z,17.30
2022-09-18T12:59:54.329Z,17.15
2022-09-18T13:02:32.891Z,16.88
2022-09-18T13:05:04.667Z,16.44
2022-09-18T13:07:33.553Z,16.45
2022-09-18T13:10:07.145Z,16.08
2022-09-18T13:12:39.750Z,15.74
2022-09-18T13:15:15.197Z,15.19
2022-09-18T13:17:48.800Z,14.92
2022-09-18T13:20:24.092Z,14.85
2022-09-18T13:22:54.034Z,14.87
2022-09-18T13:25:33.058Z,14.96
2022-09-18T13:28:03.442Z,14.90
2022-09-18T13:30:33.814Z,15.25
2022-09-18T13:33:02.996Z,15.35
2022-09-18T13:35:32.549Z,15.49
2022-09-18T13:38:17.734Z,15.82
2022-09-18T13:40:48.018Z,15.89
2022-09-18T13:43:34.959Z,16.15
2022-09-18T13:46:07.313Z,15.91
2022-09-18T13:48:42.910Z,15.92
2022-09-18T13:51:12.796Z,15.91
2022-09-18T13:53:42.952Z,15.82
2022-09-18T13:56:12.559Z,15.61
2022-09-18T13:58:52.649Z,15.92
2022-09-18T14:01:55.053Z,15.80
2022-09-18T14:05:09.972Z,15.76
2022-09-18T14:08:14.389Z,15.85
2022-09-18T14:11:19.553Z,15.88
2022-09-18T14:13:51.911Z,15.66
2022-09-18T14:16:30.019Z,16.11
2022-09-18T14:19:02.606Z,16.17
2022-09-18T14:21:32.917Z,16.22
2022-09-18T14:24:43.213Z,16.67
2022-09-18T14:27:34.673Z,16.73
2022-09-18T14:30:13.196Z,16.32
2022-09-18T14:32:42.193Z,16.13
2022-09-18T14:35:25.036Z,16.41
2022-09-18T14:37:53.243Z,15.73
2022-09-18T14:40:24.871Z,15.94
2022-09-18T14:42:54.213Z,16.50
2022-09-18T14:45:28.549Z,15.83
2022-09-18T14:47:56.944Z,15.22
2022-09-18T14:50:33.960Z,15.33
2022-09-18T14:53:03.809Z,15.36
2022-09-18T14:55:36.054Z,15.47
2022-09-18T14:58:07.980Z,15.52
2022-09-18T15:00:38.265Z,15.58
2022-09-18T15:03:09.157Z,15.63
2022-09-18T15:05:38.113Z,15.24
2022-09-18T15:08:08.658Z,15.33
2022-09-18T15:10:39.826Z,15.30
2022-09-18T15:13:09.810Z,15.73
2022-09-18T15:15:40.190Z,14.95
2022-09-18T15:18:19.870Z,15.16
2022-09-18T15:20:50.763Z,14.70
2022-09-18T15:23:26.473Z,14.50
2022-09-18T15:25:57.512Z,14.25
2022-09-18T15:28:27.554Z,14.75
2022-09-18T15:30:58.282Z,14.12
2022-09-18T15:33:27.494Z,13.94
2022-09-18T15:35:56.587Z,14.06
2022-09-18T15:38:26.881Z,14.31
2022-09-18T15:40:55.937Z,14.33
2022-09-18T15:43:43.800Z,14.71
2022-09-18T15:46:13.975Z,14.46
2022-09-18T15:48:45.369Z,14.54
2022-09-18T15:51:17.298Z,14.73
2022-09-18T15:54:07.719Z,14.94
2022-09-18T15:56:37.143Z,14.69
2022-09-18T15:59:08.210Z,14.83
2022-09-18T16:01:42.252Z,14.69
2022-09-18T16:04:20.398Z,14.98
2022-09-18T16:06:55.620Z,14.93
2022-09-18T16:09:42.334Z,15.14
2022-09-18T16:12:35.919Z,15.25
2022-09-18T16:15:20.672Z,15.05
2022-09-18T16:18:03.951Z,15.01
2022-09-18T16:20:34.875Z,14.71
2022-09-18T16:23:15.404Z,14.84
2022-09-18T16:25:45.602Z,14.48
2022-09-18T16:28:24.962Z,14.57
2022-09-18T16:30:55.172Z,14.32
2022-09-18T16:33:26.029Z,14.23
2022-09-18T16:36:01.848Z,14.29
2022-09-18T16:38:30.525Z,13.80
2022-09-18T16:40:58.734Z,13.65
2022-09-18T16:43:27.338Z,13.76
2022-09-18T16:45:57.410Z,13.82
2022-09-18T16:48:26.025Z,13.51
2022-09-18T16:50:54.412Z,13.33
2022-09-18T16:53:22.482Z,13.29
2022-09-18T16:55:53.239Z,13.51
2022-09-18T16:58:22.471Z,13.39
2022-09-18T17:00:50.730Z,13.04
2022-09-18T17:03:20.376Z,13.35
2022-09-18T17:05:48.473Z,12.94
2022-09-18T17:08:16.955Z,12.91
2022-09-18T17:10:45.471Z,12.94
2022-09-18T17:13:13.925Z,12.82
2022-09-18T17:15:42.501Z,13.02
2022-09-18T17:18:11.132Z,12.68
2022-09-18T17:20:40.892Z,12.80
2022-09-18T17:23:09.604Z,12.46
2022-09-18T17:25:38.001Z,12.35
2022-09-18T17:28:06.234Z,12.35
2022-09-18T17:30:34.645Z,12.44
2022-09-18T17:33:03.213Z,12.41
2022-09-18T17:35:31.354Z,12.36
2022-09-18T17:38:01.003Z,12.65
2022-09-18T17:40:29.690Z,12.22
2022-09-18T17:42:58.093Z,12.34
2022-09-18T17:45:26.372Z,12.32
2022-09-18T17:47:54.688Z,12.22
2022-09-18T17:50:24.992Z,12.25
2022-09-18T17:52:53.398Z,12.11
2022-09-18T17:55:22.845Z,12.34
2022-09-18T17:57:52.956Z,11.98
2022-09-18T18:00:22.016Z,12.24
2022-09-18T18:02:50.432Z,12.16
2022-09-18T18:05:19.320Z,12.14
2022-09-18T18:07:47.630Z,12.04
2022-09-18T18:10:15.884Z,11.91
2022-09-18T18:12:45.497Z,12.10
2022-09-18T18:15:13.947Z,11.80
2022-09-18T18:17:43.095Z,11.81
2022-09-18T18:20:11.630Z,11.95
2022-09-18T18:22:40.090Z,11.82
2022-09-18T18:25:09.721Z,12.10
2022-09-18T18:27:37.890Z,11.82
2022-09-18T18:30:10.325Z,12.19
2022-09-18T18:32:42.901Z,11.76
2022-09-18T18:35:11.664Z,11.81
2022-09-18T18:37:39.709Z,11.74
2022-09-18T18:40:08.676Z,11.99
2022-09-18T18:42:37.006Z,11.84
2022-09-18T18:45:07.876Z,11.81
2022-09-18T18:47:36.617Z,11.73
2022-09-18T18:50:06.130Z,11.81
2022-09-18T18:52:34.359Z,11.69
2022-09-18T18:55:02.746Z,11.59
2022-09-18T18:57:31.718Z,11.75
2022-09-18T18:59:59.843Z,11.63
2022-09-18T19:02:32.230Z,11.92
2022-09-18T19:05:03.161Z,11.66
2022-09-18T19:07:32.663Z,11.84
2022-09-18T19:10:01.779Z,11.50
2022-09-18T19:12:31.325Z,11.50
2022-09-18T19:14:59.459Z,11.50
2022-09-18T19:17:29.245Z,11.42
2022-09-18T19:19:58.873Z,11.40
2022-09-18T19:22:27.169Z,11.34
2022-09-18T19:24:55.451Z,11.31
2022-09-18T19:27:23.742Z,11.38
2022-09-18T19:29:51.825Z,11.41
2022-09-18T19:32:21.181Z,11.48
2022-09-18T19:34:50.827Z,11.85
2022-09-18T19:37:19.909Z,11.56
2022-09-18T19:39:50.427Z,11.50
2022-09-18T19:42:18.817Z,11.45
2022-09-18T19:44:48.298Z,11.73
2022-09-18T19:47:22.014Z,11.81
2022-09-18T19:49:52.033Z,11.53
2022-09-18T19:52:22.504Z,11.46
2022-09-18T19:54:53.118Z,11.43
2022-09-18T19:57:23.261Z,11.16
2022-09-18T19:59:54.297Z,11.10
2022-09-18T20:02:22.793Z,11.96
2022-09-18T20:04:52.414Z,11.38
2022-09-18T20:07:20.620Z,10.96
2022-09-18T20:09:48.932Z,10.90
2022-09-18T20:12:17.107Z,10.94
2022-09-18T20:14:45.297Z,10.92
2022-09-18T20:17:13.760Z,10.78
2022-09-18T20:19:42.155Z,10.87
2022-09-18T20:22:11.870Z,11.12
2022-09-18T20:24:40.717Z,10.85
2022-09-18T20:27:08.813Z,10.73
2022-09-18T20:29:37.803Z,10.75
2022-09-18T20:32:06.151Z,10.74
2022-09-18T20:34:34.420Z,10.76
2022-09-18T20:37:03.421Z,10.68
2022-09-18T20:39:33.251Z,11.08
2022-09-18T20:42:01.578Z,10.88
2022-09-18T20:44:30.354Z,10.95
2022-09-18T20:46:58.670Z,11.02
2022-09-18T20:49:27.038Z,11.13
2022-09-18T20:51:55.623Z,11.17
2022-09-18T20:54:24.259Z,11.26
2022-09-18T20:56:54.459Z,11.62
2022-09-18T20:59:22.503Z,11.33
2022-09-18T21:01:51.080Z,11.56
2022-09-18T21:04:21.815Z,11.85
2022-09-18T21:06:56.350Z,11.67
2022-09-18T21:09:26.402Z,11.50
2022-09-18T21:11:56.824Z,11.75
2022-09-18T21:14:27.518Z,11.44
2022-09-18T21:16:56.085Z,11.56
2022-09-18T21:19:26.292Z,11.53
2022-09-18T21:21:54.842Z,11.52
2022-09-18T21:24:23.238Z,11.65
2022-09-18T21:26:51.380Z,11.65
2022-09-18T21:29:22.852Z,12.05
2022-09-18T21:31:52.272Z,11.99
2022-09-18T21:34:24.476Z,12.00
2022-09-18T21:36:56.457Z,12.12
2022-09-18T21:39:25.955Z,11.95
2022-09-18T21:41:54.053Z,11.86
2022-09-18T21:44:27.072Z,12.30
2022-09-18T21:46:56.042Z,12.09
2022-09-18T21:49:24.346Z,11.87
2022-09-18T21:51:55.215Z,12.35
2022-09-18T21:54:24.440Z,12.00
2022-09-18T21:56:52.898Z,11.78
2022-09-18T21:59:22.299Z,11.65
2022-09-18T22:01:54.896Z,11.93
2022-09-18T22:04:26.228Z,11.69
2022-09-18T22:06:55.626Z,12.53
2022-09-18T22:09:25.974Z,11.96
2022-09-18T22:11:54.494Z,11.60
2022-09-18T22:14:29.927Z,11.89
2022-09-18T22:16:59.780Z,11.97
2022-09-18T22:19:28.198Z,11.61
2022-09-18T22:21:56.441Z,11.69
2022-09-18T22:24:25.664Z,11.92
2022-09-18T22:26:56.531Z,12.03
2022-09-18T22:29:26.364Z,11.94
2022-09-18T22:31:55.176Z,11.75
2022-09-18T22:34:26.482Z,12.00
2022-09-18T22:36:55.041Z,11.74
2022-09-18T22:39:24.013Z,11.53
2022-09-18T22:41:52.528Z,11.50
2022-09-18T22:44:21.441Z,11.59
2022-09-18T22:46:52.082Z,11.70
2022-09-18T22:49:21.363Z,11.67
2022-09-18T22:51:51.586Z,11.90
2022-09-18T22:54:23.771Z,11.94
2022-09-18T22:56:52.467Z,11.51
2022-09-18T22:59:22.271Z,11.69
2022-09-18T23:01:52.243Z,11.78
2022-09-18T23:04:23.563Z,11.75
2022-09-18T23:06:53.479Z,11.89
2022-09-18T23:09:21.663Z,11.54
2022-09-18T23:11:52.013Z,11.81
2022-09-18T23:14:21.772Z,11.82
2022-09-18T23:16:50.674Z,11.71
2022-09-18T23:19:21.005Z,12.01
2022-09-18T23:21:49.271Z,11.78
2022-09-18T23:24:19.001Z,12.11
2022-09-18T23:26:49.266Z,12.10
2022-09-18T23:29:18.649Z,11.95
2022-09-18T23:31:50.492Z,12.09
2022-09-18T23:34:20.294Z,12.06
2022-09-18T23:36:49.741Z,12.03
2022-09-18T23:39:21.430Z,12.14
2022-09-18T23:41:50.119Z,11.78
2022-09-18T23:44:20.381Z,11.78
2022-09-18T23:46:48.795Z,11.48
2022-09-18T23:49:22.381Z,11.53
2022-09-18T23:51:52.684Z,11.64
2022-09-18T23:54:24.070Z,11.72
2022-09-18T23:56:52.592Z,11.34
2022-09-18T23:59:23.021Z,11.42
